Time;durP1;ratioP1;P1;durP2;ratioP2;P2;SDS_P1;SDS_P2;PMS_P1;PMS_P2;Temp;Humidity;BMP_temperature;BMP_pressure;BME280_temperature;BME280_humidity;BME280_pressure;Samples;Min_cycle;Max_cycle;Signal;HPM_P1;HPM_P2
2023/02/08 00:01:26;;;;;;;;;24.00;22.25;;;;;6.25;52.52;103178.59;5019491;28;48089;-68
2023/02/08 00:03:52;;;;;;;;;29.75;26.50;;;;;6.42;52.53;103209.94;5038101;28;45643;-68
2023/02/08 00:06:17;;;;;;;;;30.75;24.75;;;;;6.48;52.48;103211.00;5025962;28;45449;-68
2023/02/08 00:08:43;;;;;;;;;25.75;24.00;;;;;6.46;52.46;103203.84;5027722;28;45594;-68
2023/02/08 00:11:10;;;;;;;;;22.25;22.25;;;;;6.51;52.07;103204.84;5027314;28;47280;-69
2023/02/08 00:13:36;;;;;;;;;24.50;23.00;;;;;6.44;51.83;103187.00;5034744;28;45895;-68
2023/02/08 00:16:02;;;;;;;;;24.25;19.25;;;;;6.51;52.57;103196.00;5024924;28;45335;-68
2023/02/08 00:18:27;;;;;;;;;23.75;21.25;;;;;6.51;52.13;103193.34;5020700;28;45295;-68
2023/02/08 00:20:54;;;;;;;;;30.50;27.75;;;;;6.53;52.29;103194.25;5028268;28;45327;-68
2023/02/08 00:23:20;;;;;;;;;27.25;22.50;;;;;6.43;52.55;103185.19;5039763;28;45764;-68
2023/02/08 00:25:45;;;;;;;;;15.50;15.25;;;;;6.43;52.97;103179.88;5025194;28;45382;-68
2023/02/08 00:28:14;;;;;;;;;23.75;19.75;;;;;6.53;52.65;103197.81;5032898;28;45311;-68
2023/02/08 00:30:40;;;;;;;;;23.50;21.00;;;;;6.52;53.07;103193.38;5018980;28;45572;-68
2023/02/08 00:33:05;;;;;;;;;26.50;25.00;;;;;6.51;52.29;103186.25;5031759;28;45523;-68
2023/02/08 00:35:31;;;;;;;;;23.50;21.50;;;;;6.52;52.64;103184.53;5029851;28;45282;-68
2023/02/08 00:37:57;;;;;;;;;26.00;21.25;;;;;6.46;52.32;103178.19;5031649;28;45322;-68
2023/02/08 00:40:22;;;;;;;;;22.25;20.25;;;;;6.47;52.33;103182.66;5020175;28;47057;-68
2023/02/08 00:42:48;;;;;;;;;26.50;20.25;;;;;6.33;52.09;103161.94;5025930;28;45332;-68
2023/02/08 00:45:14;;;;;;;;;30.75;23.00;;;;;6.45;52.23;103179.06;5025154;28;45316;-68
2023/02/08 00:47:39;;;;;;;;;20.25;18.00;;;;;6.46;52.57;103178.19;5019193;28;45339;-68
2023/02/08 00:50:05;;;;;;;;;26.75;21.25;;;;;6.41;52.09;103165.69;5020103;28;45267;-68
2023/02/08 00:52:31;;;;;;;;;15.25;14.25;;;;;6.30;52.26;103158.38;5034050;28;45483;-68
2023/02/08 00:54:56;;;;;;;;;27.00;21.75;;;;;6.30;51.98;103157.50;5038312;28;45586;-68
2023/02/08 00:57:22;;;;;;;;;24.50;20.00;;;;;6.40;52.16;103166.53;5019953;28;45584;-68
2023/02/08 00:59:47;;;;;;;;;22.75;21.75;;;;;6.37;52.10;103163.84;5018429;28;46493;-68
2023/02/08 01:02:12;;;;;;;;;26.25;22.25;;;;;6.37;51.88;103174.44;5022918;28;45429;-68
2023/02/08 01:04:38;;;;;;;;;22.75;19.00;;;;;6.40;52.46;103174.50;5036849;28;45387;-68
2023/02/08 01:07:04;;;;;;;;;20.25;15.75;;;;;6.46;51.95;103174.66;5027201;28;45369;-68
2023/02/08 01:09:30;;;;;;;;;25.25;23.00;;;;;6.39;52.29;103164.75;5037632;28;46030;-68
2023/02/08 01:11:55;;;;;;;;;25.75;24.25;;;;;6.42;52.08;103171.03;5031267;28;45396;-68
2023/02/08 01:14:21;;;;;;;;;30.25;26.25;;;;;6.34;52.17;103161.09;5034783;28;45418;-68
2023/02/08 01:16:46;;;;;;;;;23.75;22.00;;;;;6.45;51.65;103172.88;5025360;28;45366;-68
2023/02/08 01:19:11;;;;;;;;;25.50;21.50;;;;;6.37;52.32;103163.84;5019606;28;46206;-68
2023/02/08 01:21:39;;;;;;;;;23.25;22.75;;;;;6.33;52.30;103164.59;5027284;28;45312;-68
2023/02/08 01:24:05;;;;;;;;;27.50;22.50;;;;;6.39;52.25;103183.34;5036311;28;45370;-68
2023/02/08 01:26:31;;;;;;;;;33.00;26.50;;;;;6.34;51.94;103169.06;5026536;28;45718;-68
2023/02/08 01:28:58;;;;;;;;;30.25;21.00;;;;;6.29;52.39;103164.53;5025066;28;45723;-68
2023/02/08 01:31:27;;;;;;;;;21.25;20.00;;;;;6.32;52.29;103170.78;5019527;28;45438;-68
2023/02/08 01:33:53;;;;;;;;;27.00;22.00;;;;;6.39;51.92;103184.22;5038232;28;45362;-68
2023/02/08 01:36:20;;;;;;;;;34.75;26.00;;;;;6.43;52.07;103191.41;5028386;28;45602;-69
2023/02/08 01:38:45;;;;;;;;;30.50;25.00;;;;;6.46;51.97;103203.84;5024623;28;46813;-68
2023/02/08 01:41:24;;;;;;;;;33.25;27.00;;;;;6.44;52.56;103200.25;5026609;28;45597;-68
2023/02/08 01:44:10;;;;;;;;;24.25;21.75;;;;;6.46;52.37;103198.53;5034404;28;45504;-68
2023/02/08 01:46:41;;;;;;;;;27.50;25.25;;;;;6.47;52.89;103205.66;5030372;28;45477;-68
2023/02/08 01:49:14;;;;;;;;;23.00;20.00;;;;;6.34;52.63;103185.88;5029646;28;45450;-68
2023/02/08 01:51:44;;;;;;;;;28.25;27.25;;;;;6.43;52.56;103203.75;5020482;28;45338;-68
2023/02/08 01:54:12;;;;;;;;;26.25;20.75;;;;;6.34;52.70;103190.28;5022774;28;45379;-68
2023/02/08 01:56:44;;;;;;;;;30.50;27.25;;;;;6.32;53.14;103189.34;5023203;28;45563;-68
2023/02/08 01:59:16;;;;;;;;;31.75;30.25;;;;;6.37;52.95;103193.91;5018792;28;46236;-68
2023/02/08 02:01:44;;;;;;;;;38.50;28.00;;;;;6.38;52.48;103197.44;5021746;28;45464;-68
2023/02/08 02:04:11;;;;;;;;;41.25;29.75;;;;;6.24;53.09;103168.81;5038071;28;45604;-68
2023/02/08 02:06:41;;;;;;;;;32.75;29.25;;;;;6.14;52.81;103147.38;5021102;28;45371;-68
2023/02/08 02:09:15;;;;;;;;;32.25;28.00;;;;;6.40;53.02;103190.41;5028064;28;46216;-68
2023/02/08 02:11:42;;;;;;;;;22.75;21.25;;;;;6.42;53.20;103194.03;5020645;28;46051;-68
2023/02/08 02:14:08;;;;;;;;;29.00;27.50;;;;;6.32;52.81;103176.09;5036514;28;45415;-68
2023/02/08 02:16:34;;;;;;;;;33.50;28.50;;;;;6.21;53.18;103144.88;5037769;28;45523;-68
2023/02/08 02:18:59;;;;;;;;;29.25;25.75;;;;;6.30;53.21;103160.13;5024777;28;45514;-68
2023/02/08 02:21:53;;;;;;;;;26.75;23.25;;;;;6.24;53.05;103155.56;5023201;28;45542;-68
2023/02/08 02:24:51;;;;;;;;;30.00;27.00;;;;;6.39;53.13;103167.41;5021293;28;45458;-68
2023/02/08 02:27:24;;;;;;;;;32.50;28.25;;;;;6.37;52.91;103182.41;5031891;28;45384;-68
2023/02/08 02:30:29;;;;;;;;;28.50;26.50;;;;;6.35;53.41;103168.19;5018698;28;45500;-68
2023/02/08 02:33:12;;;;;;;;;22.75;19.25;;;;;6.33;52.51;103161.94;5029514;28;45517;-68
2023/02/08 02:36:07;;;;;;;;;23.00;22.00;;;;;6.27;52.53;103155.63;5027216;28;45554;-68
2023/02/08 02:38:48;;;;;;;;;28.00;25.25;;;;;6.24;53.23;103152.91;4995616;28;45447;-68
2023/02/08 02:44:32;;;;;;;;;26.50;24.25;;;;;6.21;53.01;103152.84;5033689;28;45769;-68
2023/02/08 02:47:10;;;;;;;;;31.25;23.75;;;;;6.09;53.28;103124.25;5022045;28;45497;-68
2023/02/08 02:49:44;;;;;;;;;23.75;20.75;;;;;6.11;53.02;103125.22;5022033;28;45410;-68
2023/02/08 02:52:32;;;;;;;;;35.50;28.75;;;;;6.08;53.35;103124.22;5020066;28;47079;-68
2023/02/08 02:55:06;;;;;;;;;29.25;25.50;;;;;6.15;53.19;103130.56;5036151;28;45784;-68
2023/02/08 02:57:34;;;;;;;;;26.75;25.50;;;;;6.04;53.29;103119.72;5031481;28;45483;-68
2023/02/08 03:00:05;;;;;;;;;26.50;26.00;;;;;6.07;53.37;103133.06;5035732;28;45333;-68
2023/02/08 03:02:30;;;;;;;;;36.25;32.00;;;;;6.08;53.65;103146.34;5026161;28;46275;-68
2023/02/08 03:04:56;;;;;;;;;25.75;24.75;;;;;5.99;52.81;103116.94;5034747;28;45231;-68
2023/02/08 03:07:45;;;;;;;;;22.75;22.50;;;;;5.89;52.89;103099.00;5040801;28;46019;-68
2023/02/08 03:10:28;;;;;;;;;31.00;23.50;;;;;6.06;53.18;103126.81;5033203;28;45355;-68
2023/02/08 03:13:03;;;;;;;;;28.75;24.75;;;;;5.95;52.68;103112.41;5027607;28;48457;-68
2023/02/08 03:15:46;;;;;;;;;19.25;19.00;;;;;5.89;52.62;103106.94;5039063;28;45571;-68
2023/02/08 03:18:47;;;;;;;;;25.75;25.50;;;;;5.89;52.71;103107.81;5021783;28;45284;-68
2023/02/08 03:21:15;;;;;;;;;24.50;24.50;;;;;6.02;53.42;103121.44;5027217;28;45365;-68
2023/02/08 03:23:55;;;;;;;;;30.50;24.50;;;;;6.00;52.59;103134.66;5034021;28;46020;-68
2023/02/08 03:26:32;;;;;;;;;24.75;24.50;;;;;6.01;52.66;103131.13;5026888;28;45317;-68
2023/02/08 03:29:13;;;;;;;;;31.50;23.25;;;;;6.01;52.72;103125.81;5040069;28;45365;-68
2023/02/08 03:31:46;;;;;;;;;29.50;24.25;;;;;5.99;53.39;103126.66;5029945;28;45307;-68
2023/02/08 03:34:24;;;;;;;;;22.75;22.50;;;;;5.93;53.14;103120.31;5036645;28;46298;-68
2023/02/08 03:36:56;;;;;;;;;26.50;23.50;;;;;5.88;52.65;103107.78;5036120;28;45360;-68
2023/02/08 03:39:27;;;;;;;;;31.50;27.50;;;;;5.93;52.87;103119.41;5034957;28;45361;-68
2023/02/08 03:41:58;;;;;;;;;28.25;24.25;;;;;5.92;52.75;103129.13;5021198;28;45311;-68
2023/02/08 03:44:38;;;;;;;;;23.75;23.00;;;;;5.82;52.87;103126.22;5031952;28;46430;-68
2023/02/08 03:47:26;;;;;;;;;29.75;27.50;;;;;5.84;53.32;103140.38;5019698;28;45445;-68
2023/02/08 03:49:56;;;;;;;;;30.50;25.25;;;;;5.72;52.90;103123.31;5020098;28;45365;-68
2023/02/08 03:52:23;;;;;;;;;26.75;23.00;;;;;5.69;53.23;103124.97;5037923;28;45482;-68
2023/02/08 03:55:17;;;;;;;;;28.75;24.00;;;;;5.73;53.26;103137.44;5040481;28;46199;-68
2023/02/08 03:58:02;;;;;;;;;29.75;26.00;;;;;5.60;53.39;103119.44;5019865;28;45358;-68
2023/02/08 04:00:31;;;;;;;;;31.75;22.25;;;;;5.71;53.20;103140.09;5021010;28;45369;-68
2023/02/08 04:03:08;;;;;;;;;18.75;17.00;;;;;5.64;52.76;103135.47;5027467;28;46412;-68
2023/02/08 04:05:34;;;;;;;;;25.00;23.25;;;;;5.64;52.60;103143.41;5034747;28;45630;-67
2023/02/08 04:07:59;;;;;;;;;26.75;22.00;;;;;5.44;52.53;103119.03;5039200;28;45564;-68
2023/02/08 04:10:24;;;;;;;;;19.75;18.50;;;;;5.56;52.65;103139.66;5036151;28;45430;-68
2023/02/08 04:12:50;;;;;;;;;28.25;27.00;;;;;5.25;52.59;103096.44;5029027;28;45310;-68
2023/02/08 04:15:16;;;;;;;;;25.25;24.00;;;;;5.47;53.00;103134.13;5039180;28;46558;-68
2023/02/08 04:17:41;;;;;;;;;23.75;22.00;;;;;5.49;53.07;103140.34;5030954;28;45351;-68
2023/02/08 04:20:07;;;;;;;;;29.50;22.00;;;;;5.39;52.04;103131.25;5022882;28;45422;-67
2023/02/08 04:22:32;;;;;;;;;29.00;20.50;;;;;5.35;52.23;103130.28;5028182;28;45295;-68
2023/02/08 04:24:58;;;;;;;;;30.00;28.25;;;;;5.33;52.61;103139.03;5031293;28;45464;-68
2023/02/08 04:27:24;;;;;;;;;30.75;25.75;;;;;5.15;51.92;103115.59;5033467;28;45798;-68
2023/02/08 04:29:49;;;;;;;;;25.50;23.50;;;;;5.15;52.84;103110.28;5020586;28;45414;-67
2023/02/08 04:32:14;;;;;;;;;30.00;26.00;;;;;5.08;51.93;103114.53;5025295;28;45316;-67
2023/02/08 04:34:40;;;;;;;;;29.50;26.50;;;;;5.01;51.77;103118.75;5040413;28;45432;-68
2023/02/08 04:37:06;;;;;;;;;29.50;25.75;;;;;4.97;53.00;103126.53;5035658;28;45415;-68
2023/02/08 04:39:32;;;;;;;;;31.75;25.25;;;;;4.89;52.49;103118.38;5020691;28;45490;-68
2023/02/08 04:41:58;;;;;;;;;26.75;20.50;;;;;4.82;52.60;103105.81;5018805;28;45621;-68
2023/02/08 04:44:24;;;;;;;;;29.25;24.50;;;;;4.87;52.74;103109.50;5036097;28;45432;-68
2023/02/08 04:46:49;;;;;;;;;20.75;20.75;;;;;4.86;52.62;103113.00;5025052;28;45633;-68
2023/02/08 04:49:15;;;;;;;;;28.75;25.50;;;;;4.77;52.13;103095.09;5024059;28;45380;-68
2023/02/08 04:51:40;;;;;;;;;29.75;26.25;;;;;4.72;53.32;103077.31;5020128;28;45319;-68
2023/02/08 04:54:06;;;;;;;;;32.25;28.75;;;;;4.79;51.81;103090.78;5034751;28;45799;-68
2023/02/08 04:56:31;;;;;;;;;27.00;23.00;;;;;4.80;53.07;103103.13;5038470;28;45383;-68
2023/02/08 04:58:57;;;;;;;;;26.75;23.25;;;;;4.74;52.30;103088.81;5020266;28;45518;-68
2023/02/08 05:01:22;;;;;;;;;25.75;22.25;;;;;4.70;52.85;103076.38;5034527;28;45738;-68
2023/02/08 05:03:48;;;;;;;;;33.00;26.25;;;;;4.81;52.14;103094.34;5038375;28;45453;-68
2023/02/08 05:06:13;;;;;;;;;29.50;29.00;;;;;4.80;52.40;103095.19;5023789;28;45380;-68
2023/02/08 05:08:39;;;;;;;;;30.25;30.00;;;;;4.66;52.48;103072.75;5025043;28;45407;-68
2023/02/08 05:11:05;;;;;;;;;28.25;25.25;;;;;4.68;52.26;103086.91;5029661;28;45350;-67
2023/02/08 05:13:30;;;;;;;;;28.00;25.25;;;;;4.64;52.40;103079.72;5037821;28;45382;-68
2023/02/08 05:15:56;;;;;;;;;30.50;25.00;;;;;4.74;52.55;103102.94;5034988;28;45395;-67
2023/02/08 05:18:21;;;;;;;;;24.50;21.25;;;;;4.74;52.56;103091.47;5027842;28;45376;-68
2023/02/08 05:20:57;;;;;;;;;25.50;24.50;;;;;4.72;52.28;103086.13;5029654;28;45535;-68
2023/02/08 05:23:22;;;;;;;;;33.25;28.50;;;;;4.73;52.08;103081.75;5027538;28;47571;-68
2023/02/08 05:25:48;;;;;;;;;28.25;25.25;;;;;4.72;52.23;103083.47;5037696;28;45252;-67
2023/02/08 05:28:13;;;;;;;;;26.50;21.00;;;;;4.69;52.12;103087.78;5030733;28;45394;-68
2023/02/08 05:30:38;;;;;;;;;28.25;20.75;;;;;4.76;51.31;103106.56;5023662;28;45557;-68
2023/02/08 05:33:04;;;;;;;;;24.25;22.50;;;;;4.71;51.77;103096.66;5036680;28;46386;-68
2023/02/08 05:35:29;;;;;;;;;35.75;28.50;;;;;4.68;52.03;103078.97;5038294;28;45334;-68
2023/02/08 05:37:54;;;;;;;;;37.00;30.25;;;;;4.75;51.66;103087.97;5029622;28;45252;-68
2023/02/08 05:40:20;;;;;;;;;25.50;25.50;;;;;4.81;51.65;103090.78;5019489;28;45398;-68
2023/02/08 05:42:46;;;;;;;;;28.50;26.25;;;;;4.81;52.04;103104.94;5021315;28;46134;-68
2023/02/08 05:45:12;;;;;;;;;30.25;24.25;;;;;4.76;51.38;103093.31;5036515;28;45420;-68
2023/02/08 05:47:38;;;;;;;;;28.50;26.00;;;;;4.81;51.95;103101.38;5031561;28;45648;-68
2023/02/08 05:50:04;;;;;;;;;29.50;26.50;;;;;4.80;51.99;103092.53;5017961;28;45459;-68
2023/02/08 05:52:29;;;;;;;;;36.25;25.25;;;;;4.82;52.19;103092.59;5019273;28;47077;-68
2023/02/08 05:54:54;;;;;;;;;29.00;26.00;;;;;4.79;52.73;103085.47;5038014;28;45392;-67
2023/02/08 05:57:20;;;;;;;;;30.75;26.00;;;;;4.91;52.82;103095.50;5017844;28;45420;-68
2023/02/08 05:59:45;;;;;;;;;31.25;24.25;;;;;4.84;52.19;103085.59;5017562;28;45633;-68
2023/02/08 06:02:10;;;;;;;;;32.75;26.00;;;;;4.81;52.31;103070.53;5033099;28;46088;-68
2023/02/08 06:04:36;;;;;;;;;38.25;26.00;;;;;4.99;52.42;103090.41;5026591;28;45256;-68
2023/02/08 06:07:01;;;;;;;;;32.00;26.50;;;;;5.00;52.49;103081.63;5025661;28;45382;-68
2023/02/08 06:09:26;;;;;;;;;36.75;29.25;;;;;5.03;53.06;103088.75;5026870;28;45520;-67
2023/02/08 06:11:52;;;;;;;;;27.00;24.50;;;;;4.93;52.21;103074.38;5020657;28;46037;-68
2023/02/08 06:14:17;;;;;;;;;25.75;25.25;;;;;4.96;52.28;103079.75;5035552;28;45467;-68
2023/02/08 06:16:42;;;;;;;;;24.00;22.25;;;;;4.95;52.94;103081.50;5035543;28;47035;-68
2023/02/08 06:19:08;;;;;;;;;33.75;29.75;;;;;5.01;52.48;103094.00;5024848;28;45671;-66
2023/02/08 06:21:33;;;;;;;;;33.25;28.00;;;;;4.96;52.80;103099.19;5023289;28;45306;-66
2023/02/08 06:23:59;;;;;;;;;39.75;34.00;;;;;4.97;53.18;103108.91;5018575;28;45349;-66
2023/02/08 06:26:24;;;;;;;;;36.25;29.00;;;;;4.95;52.55;103113.25;5036512;28;45341;-66
2023/02/08 06:28:50;;;;;;;;;33.75;29.50;;;;;4.76;52.74;103088.03;5035769;28;45525;-67
2023/02/08 06:31:15;;;;;;;;;33.25;29.50;;;;;4.64;52.56;103080.63;5022158;28;48112;-66
2023/02/08 06:33:40;;;;;;;;;35.50;29.50;;;;;4.81;52.62;103119.88;5019050;28;45512;-68
2023/02/08 06:36:06;;;;;;;;;33.50;29.25;;;;;4.52;52.72;103079.34;5030339;28;45910;-68
2023/02/08 06:38:31;;;;;;;;;30.25;28.25;;;;;4.72;52.78;103114.34;5031775;28;45537;-68
2023/02/08 06:40:57;;;;;;;;;37.00;32.00;;;;;4.67;53.33;103108.03;5021291;28;46104;-68
2023/02/08 06:43:22;;;;;;;;;29.50;27.25;;;;;4.67;52.71;103106.25;5023125;28;45907;-68
2023/02/08 06:45:47;;;;;;;;;33.25;28.00;;;;;4.81;53.12;103126.09;5027363;28;45305;-66
2023/02/08 06:48:14;;;;;;;;;30.25;29.75;;;;;4.81;53.16;103122.53;5035093;28;45490;-66
2023/02/08 06:50:39;;;;;;;;;26.00;24.75;;;;;4.70;52.90;103097.53;5020722;28;48009;-67
2023/02/08 06:53:05;;;;;;;;;36.00;31.25;;;;;4.82;52.59;103125.22;5032853;28;45589;-67
2023/02/08 06:55:30;;;;;;;;;35.75;32.50;;;;;4.69;52.10;103101.91;5033735;28;45601;-67
2023/02/08 06:57:56;;;;;;;;;33.25;28.00;;;;;4.66;52.60;103114.16;5024653;28;45367;-66
2023/02/08 07:00:21;;;;;;;;;29.50;23.25;;;;;4.57;52.68;103096.25;5034559;28;45964;-66
2023/02/08 07:02:47;;;;;;;;;28.50;28.25;;;;;4.64;52.69;103106.16;5041663;28;45550;-66
2023/02/08 07:05:13;;;;;;;;;34.25;31.00;;;;;4.69;51.94;103123.06;5041574;28;45319;-67
2023/02/08 07:07:38;;;;;;;;;38.00;32.25;;;;;4.75;52.79;103132.97;5040236;28;45544;-67
2023/02/08 07:10:04;;;;;;;;;34.50;32.25;;;;;4.62;52.67;103116.69;5040890;28;46340;-67
2023/02/08 07:12:33;;;;;;;;;33.00;30.00;;;;;4.64;52.16;103136.19;5038591;28;46312;-67
2023/02/08 07:14:58;;;;;;;;;29.75;28.75;;;;;4.48;52.18;103118.03;5041165;28;45482;-67
2023/02/08 07:17:24;;;;;;;;;26.50;19.75;;;;;4.47;51.70;103134.75;5039780;28;45516;-67
2023/02/08 07:19:49;;;;;;;;;32.75;29.00;;;;;4.30;52.36;103104.25;5028531;28;47263;-67
2023/02/08 07:22:15;;;;;;;;;36.75;27.75;;;;;4.33;51.82;103107.00;5040241;28;45970;-67
2023/02/08 07:24:41;;;;;;;;;29.50;27.75;;;;;4.23;51.91;103101.41;5041183;28;45484;-67
2023/02/08 07:27:08;;;;;;;;;33.25;27.25;;;;;4.31;51.91;103109.59;5039752;28;46119;-67
2023/02/08 07:29:34;;;;;;;;;28.00;24.25;;;;;4.32;52.38;103124.59;5033337;28;46370;-67
2023/02/08 07:32:00;;;;;;;;;35.25;30.75;;;;;4.31;51.95;103124.53;5021420;28;45772;-67
2023/02/08 07:34:29;;;;;;;;;32.00;27.50;;;;;4.22;52.68;103122.50;5034512;28;45625;-67
2023/02/08 07:36:54;;;;;;;;;36.25;26.75;;;;;4.20;52.21;103127.75;5038726;28;45516;-68
2023/02/08 07:39:19;;;;;;;;;31.75;29.50;;;;;4.12;52.20;103115.13;5037382;28;46970;-67
2023/02/08 07:41:46;;;;;;;;;28.75;27.00;;;;;4.06;51.94;103116.72;5038922;28;45525;-65
2023/02/08 07:44:11;;;;;;;;;36.75;35.50;;;;;3.94;52.14;103091.63;5034954;28;45521;-67
2023/02/08 07:46:36;;;;;;;;;32.75;25.25;;;;;3.94;52.68;103087.22;5036642;28;45620;-66
2023/02/08 07:49:02;;;;;;;;;37.50;33.25;;;;;4.04;51.97;103112.22;5031486;28;45481;-67
2023/02/08 07:51:27;;;;;;;;;34.00;29.50;;;;;4.02;51.74;103117.44;5038000;28;45365;-68
2023/02/08 07:53:53;;;;;;;;;31.75;24.75;;;;;3.95;51.77;103122.50;5040161;28;45280;-68
2023/02/08 07:56:18;;;;;;;;;33.75;30.25;;;;;3.89;52.28;103115.25;5028236;28;45693;-68
2023/02/08 07:58:43;;;;;;;;;37.00;34.25;;;;;3.83;52.25;103120.34;5027171;28;48108;-68
2023/02/08 08:01:09;;;;;;;;;33.50;29.50;;;;;3.90;51.96;103131.16;5037019;28;45235;-68
2023/02/08 08:03:34;;;;;;;;;30.75;26.50;;;;;3.72;52.17;103104.13;5038641;28;45486;-67
2023/02/08 08:06:00;;;;;;;;;35.50;29.00;;;;;3.71;52.11;103107.63;5026570;28;45473;-68
2023/02/08 08:08:25;;;;;;;;;36.00;29.25;;;;;3.79;52.20;103124.66;5036006;28;45652;-68
2023/02/08 08:10:50;;;;;;;;;31.00;28.00;;;;;3.58;51.40;103090.47;5021257;28;45317;-68
2023/02/08 08:13:16;;;;;;;;;34.00;32.25;;;;;3.49;51.51;103079.56;5036788;28;45945;-68
2023/02/08 08:15:41;;;;;;;;;25.25;19.75;;;;;3.62;52.17;103113.47;5035008;28;45550;-68
2023/02/08 08:18:07;;;;;;;;;37.00;30.75;;;;;3.43;51.87;103084.66;5038221;28;47350;-68
2023/02/08 08:20:33;;;;;;;;;36.50;31.25;;;;;3.57;52.00;103115.06;5038038;28;46073;-67
2023/02/08 08:22:59;;;;;;;;;31.75;26.25;;;;;3.38;51.58;103094.16;5034428;28;45485;-68
2023/02/08 08:25:25;;;;;;;;;37.25;36.00;;;;;3.52;51.94;103121.94;5039400;28;45414;-68
2023/02/08 08:27:51;;;;;;;;;32.75;28.50;;;;;3.53;51.93;103121.97;5034774;28;45370;-68
2023/02/08 08:30:16;;;;;;;;;38.00;33.50;;;;;3.34;52.08;103077.28;5022548;28;46055;-68
2023/02/08 08:32:42;;;;;;;;;30.50;30.00;;;;;3.45;52.46;103101.44;5037905;28;45432;-67
2023/02/08 08:35:08;;;;;;;;;35.75;33.00;;;;;3.40;51.93;103093.34;5033479;28;45451;-68
2023/02/08 08:37:34;;;;;;;;;35.00;29.75;;;;;3.47;52.41;103107.66;5037655;28;47358;-68
2023/02/08 08:39:59;;;;;;;;;32.50;29.25;;;;;3.40;52.36;103089.81;5037302;28;45388;-67
2023/02/08 08:42:25;;;;;;;;;40.25;36.25;;;;;3.54;52.30;103112.31;5038124;28;45844;-68
2023/02/08 08:44:51;;;;;;;;;38.00;27.50;;;;;3.38;51.75;103086.25;5039243;28;45243;-66
2023/02/08 08:47:17;;;;;;;;;35.75;30.75;;;;;3.46;51.51;103100.63;5026338;28;46232;-68
2023/02/08 08:49:42;;;;;;;;;34.00;28.75;;;;;3.45;51.90;103091.78;5036839;28;45370;-65
2023/02/08 08:52:09;;;;;;;;;39.50;33.50;;;;;3.59;52.04;103110.75;5038401;28;45410;-73
2023/02/08 08:54:34;;;;;;;;;32.75;29.00;;;;;3.57;51.48;103104.50;5038772;28;45358;-73
2023/02/08 08:57:00;;;;;;;;;33.75;30.00;;;;;3.48;51.45;103094.53;5039209;28;46018;-72
2023/02/08 08:59:26;;;;;;;;;34.25;30.50;;;;;3.38;51.59;103086.25;5038204;28;45439;-73
2023/02/08 09:01:51;;;;;;;;;42.50;37.50;;;;;3.49;51.38;103098.97;5038117;28;45501;-73
2023/02/08 09:04:17;;;;;;;;;37.00;31.25;;;;;3.41;51.46;103086.31;5031442;28;45379;-74
2023/02/08 09:06:42;;;;;;;;;38.75;28.00;;;;;3.41;51.60;103074.03;5031221;28;48065;-73
2023/02/08 09:09:09;;;;;;;;;33.50;28.25;;;;;3.29;51.50;103041.91;5031108;28;45366;-66
2023/02/08 09:11:34;;;;;;;;;37.25;33.00;;;;;3.52;51.60;103085.88;5037204;28;45381;-68
2023/02/08 09:14:03;;;;;;;;;31.00;26.75;;;;;3.50;51.52;103069.06;5032565;28;45442;-68
2023/02/08 09:16:29;;;;;;;;;37.00;33.00;;;;;3.56;51.77;103080.66;5029567;28;45437;-68
2023/02/08 09:18:54;;;;;;;;;33.00;29.00;;;;;3.46;51.56;103055.72;5030982;28;45551;-68
2023/02/08 09:21:23;;;;;;;;;37.25;31.25;;;;;3.41;51.70;103020.31;5034244;28;45318;-68
2023/02/08 09:23:49;;;;;;;;;44.25;37.50;;;;;3.68;51.24;103057.34;5035871;28;45654;-69
2023/02/08 09:26:16;;;;;;;;;37.00;31.50;;;;;3.77;51.14;103069.94;5036218;28;46020;-68
2023/02/08 09:28:42;;;;;;;;;36.25;33.00;;;;;3.70;51.33;103056.53;5033908;28;45339;-68
2023/02/08 09:31:08;;;;;;;;;35.00;28.00;;;;;3.85;51.06;103069.34;5029775;28;45406;-69
2023/02/08 09:33:34;;;;;;;;;19.50;16.00;;;;;3.81;50.81;103048.97;5038028;28;45381;-68
2023/02/08 09:35:59;;;;;;;;;32.75;28.00;;;;;3.91;51.09;103063.38;5031566;28;46078;-68
2023/02/08 09:38:25;;;;;;;;;33.25;25.75;;;;;3.88;50.98;103061.50;5028618;28;45370;-68
2023/02/08 09:41:15;;;;;;;;;36.25;27.75;;;;;3.94;50.27;103058.16;5033969;28;45384;-68
2023/02/08 09:44:09;;;;;;;;;36.00;32.25;;;;;3.87;50.29;103048.25;5038593;28;45325;-68
2023/02/08 09:46:39;;;;;;;;;35.00;28.50;;;;;3.86;50.64;103043.84;5023009;28;45281;-68
2023/02/08 09:49:13;;;;;;;;;37.25;34.00;;;;;3.99;51.28;103051.31;5035360;28;45418;-68
2023/02/08 09:51:48;;;;;;;;;28.50;26.00;;;;;4.05;50.60;103054.13;5033701;28;45550;-68
2023/02/08 09:54:21;;;;;;;;;40.00;28.50;;;;;3.99;50.00;103024.88;5018981;28;45486;-69
2023/02/08 09:56:49;;;;;;;;;32.50;27.25;;;;;3.84;50.83;103012.06;5031855;28;47537;-68
2023/02/08 09:59:19;;;;;;;;;31.75;28.25;;;;;3.76;49.43;102984.50;5036883;28;45396;-68
2023/02/08 10:01:47;;;;;;;;;31.00;28.50;;;;;4.11;50.69;103044.59;5036296;28;45352;-68
2023/02/08 10:04:47;;;;;;;;;31.25;27.75;;;;;4.29;50.26;103054.84;5037467;28;46210;-68
2023/02/08 10:07:12;;;;;;;;;39.75;31.75;;;;;4.27;49.93;103037.19;5037668;28;45347;-69
2023/02/08 10:09:38;;;;;;;;;27.75;21.25;;;;;4.35;50.32;103044.47;5036396;28;45899;-69
2023/02/08 10:12:29;;;;;;;;;32.25;25.25;;;;;4.44;49.36;103050.94;5030191;28;45308;-68
2023/02/08 10:15:23;;;;;;;;;37.75;34.00;;;;;4.43;49.93;103051.78;5030745;28;45404;-69
2023/02/08 10:18:07;;;;;;;;;36.25;33.50;;;;;4.36;49.94;103033.94;5036478;28;47191;-65
2023/02/08 10:20:48;;;;;;;;;39.75;32.00;;;;;4.35;49.92;103045.34;5051021;28;45869;-74
2023/02/08 10:23:29;;;;;;;;;34.25;29.50;;;;;4.45;49.84;103065.94;5034143;28;45656;-74
2023/02/08 10:26:23;;;;;;;;;40.00;37.75;;;;;4.36;49.83;103035.66;5027726;28;45304;-74
2023/02/08 10:29:10;;;;;;;;;33.00;27.00;;;;;4.51;49.59;103057.31;5028013;28;46406;-74
2023/02/08 10:31:44;;;;;;;;;34.25;29.25;;;;;4.56;49.25;103065.34;5033136;28;45445;-74
2023/02/08 10:34:55;;;;;;;;;31.75;31.25;;;;;4.53;50.11;103050.31;5031449;28;45553;-74
2023/02/08 10:37:30;;;;;;;;;33.00;29.00;;;;;4.55;49.41;103045.06;5026281;28;45536;-74
2023/02/08 10:40:11;;;;;;;;;46.00;37.25;;;;;4.71;49.55;103063.19;5029806;28;45999;-74
2023/02/08 10:42:38;;;;;;;;;36.25;30.75;;;;;4.74;49.74;103065.00;5031026;28;45913;-74
2023/02/08 10:45:09;;;;;;;;;32.75;28.50;;;;;4.77;49.56;103060.69;5027119;28;45320;-74
2023/02/08 10:47:47;;;;;;;;;39.75;31.50;;;;;4.85;50.15;103068.88;5027355;28;45746;-74
2023/02/08 10:50:21;;;;;;;;;31.25;28.00;;;;;4.93;49.53;103058.50;5031638;28;45454;-74
2023/02/08 10:52:47;;;;;;;;;39.00;31.50;;;;;4.88;49.01;103053.06;5032653;28;46037;-74
2023/02/08 10:55:15;;;;;;;;;38.25;34.00;;;;;4.99;48.90;103069.25;5036397;28;45438;-74
2023/02/08 10:57:42;;;;;;;;;33.25;30.75;;;;;5.05;49.34;103066.78;5023291;28;45561;-74
2023/02/08 11:00:18;;;;;;;;;38.75;32.50;;;;;5.09;48.71;103055.41;5035898;28;46405;-75
2023/02/08 11:02:45;;;;;;;;;28.00;23.25;;;;;5.07;48.98;103035.06;5035098;28;45874;-74
2023/02/08 11:05:19;;;;;;;;;37.50;31.00;;;;;5.28;48.09;103059.47;5037289;28;45562;-75
2023/02/08 11:07:44;;;;;;;;;34.25;30.25;;;;;5.23;48.91;103042.56;5026933;28;45504;-74
2023/02/08 11:10:19;;;;;;;;;33.75;30.25;;;;;5.37;48.52;103046.44;5025398;28;46985;-75
2023/02/08 11:12:58;;;;;;;;;33.50;28.50;;;;;5.43;48.01;103055.41;5030530;28;45418;-74
2023/02/08 11:15:37;;;;;;;;;36.25;32.50;;;;;5.37;48.08;103046.44;5025459;28;45403;-74
2023/02/08 11:18:05;;;;;;;;;33.25;26.75;;;;;5.45;48.34;103040.47;5022139;28;45570;-74
2023/02/08 11:20:37;;;;;;;;;32.25;30.25;;;;;5.47;48.57;103031.69;5036537;28;46796;-75
2023/02/08 11:23:16;;;;;;;;;37.75;33.00;;;;;5.66;48.81;103048.94;5021594;28;45875;-74
2023/02/08 11:25:42;;;;;;;;;35.75;30.25;;;;;5.72;48.53;103034.97;5025573;28;45471;-75
2023/02/08 11:28:22;;;;;;;;;34.75;32.00;;;;;5.60;47.35;103024.03;5036357;28;45571;-75
2023/02/08 11:30:57;;;;;;;;;32.25;28.75;;;;;5.51;47.65;103009.75;5038938;28;48177;-75